Barrow, AK

02:21 AKST le 21 décembre 2014 (GMT -0900)
Wiley Post-Will Rogers Memorial | Change Station
CLOSE
Current Station
Aéroport
Location: Barrow,
Altitude: 43 ft
Stations météo à proximité

Alt. 43 ft 71.28 °N, 156.79 °W | Updated 28 minutes ago

Light Snow
Neige légère
0 ° F
Paraît -20 ° F
N
16
Vent Variable Vent de ENE

Aujourd'hui
Haut(e) -- | Bas -- ° F
--% Risque de précip.
Hier
Haut(e) -- | Bas -- ° F
Precip. -- pouce
2:00 PM 2:00 PM
Lune descendante, 0% visible
Pression 29.69 pouce
Visibilité 2.0 Miles terrestres
Nuages Couvert 2300 ft
Refroidissement éolien -20 ° F
Point de rosée -3 ° F
Humidité 88%
Précipitations 0.00 pouce
Profondeur de la couche neigeuse Non disponible.
UV 0 sur 12
Pollen Non disponible.
Qualité de l'air Non disponible.
Flu Activity Non disponible.
METAR PABR 211053Z 06014KT 2SM -SN BR OVC023 M18/M19 A2968 RMK AO2 VIS 1 1/4 NE SLP053 P0000 T11781194

More Conditions Fewer Conditions

Pression 29.69 pouce
Visibilité 2.0 Miles terrestres
Nuages Couvert 2300 ft
Refroidissement éolien -20 ° F
Point de rosée -3 ° F
Humidité 88%
Précipitations 0.00 pouce
Profondeur de la couche neigeuse Non disponible.
UV 0 sur 12
Pollen Non disponible.
Qualité de l'air Non disponible.
Flu Activity Non disponible.
METAR PABR 211053Z 06014KT 2SM -SN BR OVC023 M18/M19 A2968 RMK AO2 VIS 1 1/4 NE SLP053 P0000 T11781194

More Conditions Fewer Conditions

10-Day Weather Forecast

Almanac

Astronomie

Dec. 21, 2014 Lever Coucher
Temps réel
Crépuscule civil
Crépuscule nautique
Crépuscule astronomique
Lune
Durée de lumière visible
Longueur du jour
Tomorrow will be .
, % of the Moon is Illuminated

Extrêmes aujourd'hui

State Highs State Lows

Community

WunderPhotos

Upload Photos

1,779,368 Photos téléchargées !

WunderBlogs® & News

Nearby

Qualité de l'air

  Qualité de l'air Indice de la qualité de l'air Polluant
Not available.

Épaisseur de neige

Station Depth Altitude

Activité sismique

Ville Distance Mag. Time & Date
Minimum magnitude displayed is 2.5.

Températures des eaux côtières

Lieu Température

Stations météo à proximité